Time;durP1;ratioP1;P1;durP2;ratioP2;P2;SDS_P1;SDS_P2;PMS_P1;PMS_P2;Temp;Humidity;BMP_temperature;BMP_pressure;BME280_temperature;BME280_humidity;BME280_pressure;Samples;Min_cycle;Max_cycle;Signal;HPM_P1;HPM_P2
2023/08/29 00:00:15;;;;;;;1.33;1.00;;;19.60;99.90;;;;;;4953716;29;20027;-38
2023/08/29 00:02:41;;;;;;;0.70;0.70;;;19.60;99.90;;;;;;4953929;29;20026;-37
2023/08/29 00:05:08;;;;;;;1.17;0.90;;;19.60;99.90;;;;;;4953881;29;20062;-38
2023/08/29 00:07:34;;;;;;;1.15;0.85;;;19.60;99.90;;;;;;4954238;28;20024;-37
2023/08/29 00:09:59;;;;;;;1.25;0.90;;;19.60;99.90;;;;;;4953570;29;20038;-38
2023/08/29 00:12:25;;;;;;;2.15;0.80;;;19.60;99.90;;;;;;4953826;29;20114;-39
2023/08/29 00:14:51;;;;;;;1.42;0.90;;;19.60;99.90;;;;;;4953669;29;20031;-38
2023/08/29 00:17:16;;;;;;;1.17;0.90;;;19.60;99.90;;;;;;4953691;29;20489;-38
2023/08/29 00:19:42;;;;;;;2.75;1.00;;;19.60;99.90;;;;;;4953376;29;20523;-38
2023/08/29 00:22:08;;;;;;;2.30;0.80;;;19.60;99.90;;;;;;4936380;29;20050;-38
2023/08/29 00:24:34;;;;;;;1.10;0.90;;;19.60;99.90;;;;;;4953580;29;20110;-38
2023/08/29 00:26:59;;;;;;;0.95;0.73;;;19.60;99.90;;;;;;4953652;29;20031;-37
2023/08/29 00:29:26;;;;;;;2.75;1.05;;;19.60;99.90;;;;;;4953213;29;20377;-37
2023/08/29 00:31:52;;;;;;;1.75;0.95;;;19.60;99.90;;;;;;4953590;29;20019;-38
2023/08/29 00:34:18;;;;;;;1.92;0.85;;;19.60;99.90;;;;;;4953464;29;20033;-37
2023/08/29 00:36:43;;;;;;;1.52;0.90;;;19.60;99.90;;;;;;4953488;29;20027;-38
2023/08/29 00:39:09;;;;;;;1.33;0.90;;;19.50;99.90;;;;;;4952994;29;20043;-37
2023/08/29 00:41:34;;;;;;;1.08;0.80;;;19.60;99.90;;;;;;4953398;29;20030;-38
2023/08/29 00:44:00;;;;;;;1.08;0.60;;;19.60;99.90;;;;;;4953352;29;20030;-38
2023/08/29 00:46:27;;;;;;;1.05;0.80;;;19.60;99.90;;;;;;4953378;29;20031;-37
2023/08/29 00:48:54;;;;;;;1.10;0.75;;;19.60;99.90;;;;;;4953169;29;20028;-38
2023/08/29 00:51:20;;;;;;;0.65;0.57;;;19.60;99.90;;;;;;4953301;29;20027;-38
2023/08/29 00:53:46;;;;;;;1.30;1.02;;;19.60;99.90;;;;;;4953171;29;20602;-38
2023/08/29 00:56:17;;;;;;;2.25;1.15;;;19.60;99.90;;;;;;4953325;28;20031;-37
2023/08/29 00:58:43;;;;;;;1.08;0.85;;;19.60;99.90;;;;;;4957062;29;20473;-38
2023/08/29 01:01:08;;;;;;;2.92;1.10;;;19.60;99.90;;;;;;4957145;29;20027;-37
2023/08/29 01:03:35;;;;;;;2.53;1.30;;;19.60;99.90;;;;;;4957090;29;20512;-37
2023/08/29 01:06:00;;;;;;;1.80;1.10;;;19.60;99.90;;;;;;4957065;29;20094;-38
2023/08/29 01:08:26;;;;;;;3.30;0.80;;;19.50;99.90;;;;;;4956908;29;20043;-37
2023/08/29 01:11:00;;;;;;;2.95;1.27;;;19.50;99.90;;;;;;4956865;29;20078;-38
2023/08/29 01:13:47;;;;;;;1.93;0.97;;;19.50;99.90;;;;;;4957043;29;20061;-37
2023/08/29 01:16:16;;;;;;;1.75;0.70;;;19.50;99.90;;;;;;4956877;29;20054;-37
2023/08/29 01:18:43;;;;;;;2.10;1.00;;;19.50;99.90;;;;;;4956736;29;20023;-38
2023/08/29 01:21:28;;;;;;;1.83;0.88;;;19.50;99.90;;;;;;4956739;29;20110;-39
2023/08/29 01:24:04;;;;;;;3.17;1.15;;;19.50;99.90;;;;;;4956802;29;20035;-37
2023/08/29 01:26:30;;;;;;;2.20;1.10;;;19.50;99.90;;;;;;4956834;29;20028;-39
2023/08/29 01:28:57;;;;;;;2.72;1.00;;;19.50;99.90;;;;;;4956423;29;20023;-38
2023/08/29 01:31:29;;;;;;;1.02;0.70;;;19.50;99.90;;;;;;4956611;29;20031;-38
2023/08/29 01:33:58;;;;;;;1.77;0.90;;;19.50;99.90;;;;;;4956957;29;20038;-39
2023/08/29 01:36:37;;;;;;;1.40;1.00;;;19.50;99.90;;;;;;4956544;29;20082;-37
2023/08/29 01:39:02;;;;;;;1.20;0.80;;;19.50;99.90;;;;;;4956127;29;20039;-37
2023/08/29 01:41:28;;;;;;;2.17;1.08;;;19.50;99.90;;;;;;4956434;29;20102;-37
2023/08/29 01:43:54;;;;;;;1.33;0.85;;;19.50;99.90;;;;;;4956502;29;20433;-37
2023/08/29 01:46:19;;;;;;;1.30;0.93;;;19.50;99.90;;;;;;4956428;29;20109;-38
2023/08/29 01:48:47;;;;;;;1.85;1.02;;;19.50;99.90;;;;;;4956184;29;20027;-37
2023/08/29 01:51:13;;;;;;;2.15;1.17;;;19.50;99.90;;;;;;4956279;29;20079;-38
2023/08/29 01:53:40;;;;;;;1.80;1.02;;;19.50;99.90;;;;;;4956259;29;20070;-37
2023/08/29 01:56:08;;;;;;;1.45;0.80;;;19.50;99.90;;;;;;4956089;29;20034;-37
2023/08/29 01:58:35;;;;;;;1.73;1.20;;;19.50;99.90;;;;;;4956073;29;20610;-37
2023/08/29 02:01:02;;;;;;;1.10;0.80;;;19.50;99.90;;;;;;4955919;29;20054;-38
2023/08/29 02:03:28;;;;;;;1.25;0.95;;;19.50;99.90;;;;;;4956068;29;20034;-37
2023/08/29 02:05:53;;;;;;;1.52;0.80;;;19.50;99.90;;;;;;4956069;29;20046;-38
2023/08/29 02:08:19;;;;;;;0.98;0.80;;;19.50;99.90;;;;;;4954569;28;20035;-38
2023/08/29 02:10:44;;;;;;;0.98;0.88;;;19.50;99.90;;;;;;4955592;29;20102;-37
2023/08/29 02:13:10;;;;;;;2.22;0.80;;;19.50;99.90;;;;;;4956021;29;20540;-37
2023/08/29 02:15:36;;;;;;;1.90;0.90;;;19.50;99.90;;;;;;4955834;29;20613;-37
2023/08/29 02:18:02;;;;;;;1.20;0.80;;;19.50;99.90;;;;;;4955838;29;20030;-37
2023/08/29 02:20:28;;;;;;;0.95;0.82;;;19.50;99.90;;;;;;4955708;29;20071;-37
2023/08/29 02:22:53;;;;;;;1.65;0.85;;;19.50;99.90;;;;;;4955745;29;20027;-37
2023/08/29 02:25:19;;;;;;;0.98;0.70;;;19.50;99.90;;;;;;4955550;29;20031;-38
2023/08/29 02:27:45;;;;;;;2.35;0.98;;;19.50;99.90;;;;;;4955593;29;20038;-38
2023/08/29 02:30:10;;;;;;;1.92;0.90;;;19.50;99.90;;;;;;4955499;29;20498;-38
2023/08/29 02:32:38;;;;;;;2.30;1.00;;;19.50;99.90;;;;;;4955563;29;20473;-39
2023/08/29 02:35:04;;;;;;;1.40;0.80;;;19.50;99.90;;;;;;4955476;29;20114;-39
2023/08/29 02:37:29;;;;;;;0.77;0.70;;;19.50;99.90;;;;;;4955287;29;20059;-38
2023/08/29 02:39:55;;;;;;;1.48;0.90;;;19.50;99.90;;;;;;4955119;29;20567;-37
2023/08/29 02:42:20;;;;;;;1.35;0.90;;;19.50;99.90;;;;;;4938140;29;20024;-38
2023/08/29 02:44:46;;;;;;;2.33;0.90;;;19.50;99.90;;;;;;4955288;29;20031;-38
2023/08/29 02:47:12;;;;;;;1.40;0.90;;;19.50;99.90;;;;;;4955318;29;20142;-39
2023/08/29 02:49:37;;;;;;;1.65;0.80;;;19.50;99.90;;;;;;4955018;29;20378;-38
2023/08/29 02:52:03;;;;;;;1.08;0.63;;;19.50;99.90;;;;;;4955249;29;20031;-38
2023/08/29 02:54:29;;;;;;;1.02;0.90;;;19.50;99.90;;;;;;4955002;29;20489;-37
2023/08/29 02:56:54;;;;;;;1.35;0.85;;;19.50;99.90;;;;;;4955080;29;20027;-38
2023/08/29 02:59:20;;;;;;;1.45;0.90;;;19.40;99.90;;;;;;4954811;29;20563;-37
2023/08/29 03:01:46;;;;;;;1.23;1.00;;;19.50;99.90;;;;;;4955252;29;20023;-38
2023/08/29 03:04:11;;;;;;;1.33;1.00;;;19.50;99.90;;;;;;4955099;29;20023;-38
2023/08/29 03:06:37;;;;;;;2.60;0.90;;;19.40;99.90;;;;;;4954985;29;20087;-38
2023/08/29 03:09:03;;;;;;;1.20;0.90;;;19.40;99.90;;;;;;4954466;29;20023;-38
2023/08/29 03:11:29;;;;;;;2.08;0.80;;;19.40;99.90;;;;;;4954796;29;20074;-37
2023/08/29 03:13:54;;;;;;;1.33;0.88;;;19.40;99.90;;;;;;4954829;29;20031;-37
2023/08/29 03:16:20;;;;;;;1.52;0.80;;;19.40;99.90;;;;;;4954741;29;20027;-37
2023/08/29 03:18:46;;;;;;;1.75;0.75;;;19.40;99.90;;;;;;4954526;29;20020;-38
2023/08/29 03:21:11;;;;;;;1.65;0.80;;;19.40;99.90;;;;;;4954121;28;20063;-38
2023/08/29 03:23:37;;;;;;;2.65;0.90;;;19.40;99.90;;;;;;4954449;29;20027;-38
2023/08/29 03:26:07;;;;;;;1.35;0.85;;;19.40;99.90;;;;;;4954481;29;20085;-37
2023/08/29 03:28:36;;;;;;;1.08;0.75;;;19.40;99.90;;;;;;4954389;29;20035;-40
2023/08/29 03:31:11;;;;;;;1.60;0.90;;;19.40;99.90;;;;;;4954346;29;20023;-39
2023/08/29 03:33:40;;;;;;;1.00;0.90;;;19.40;99.90;;;;;;4954467;29;20496;-38
2023/08/29 03:36:07;;;;;;;0.88;0.75;;;19.40;99.90;;;;;;4954188;29;20114;-40
2023/08/29 03:38:38;;;;;;;2.08;1.05;;;19.40;99.90;;;;;;4954617;29;20030;-37
2023/08/29 03:41:04;;;;;;;1.77;0.98;;;19.40;99.90;;;;;;4954244;29;20019;-38
2023/08/29 03:43:31;;;;;;;1.30;1.00;;;19.40;99.90;;;;;;4954264;29;20024;-38
2023/08/29 03:46:02;;;;;;;1.40;1.00;;;19.40;99.90;;;;;;4954343;29;20311;-38
2023/08/29 03:48:31;;;;;;;2.88;0.90;;;19.40;99.90;;;;;;4954168;29;20023;-38
2023/08/29 03:50:58;;;;;;;1.10;1.00;;;19.40;99.90;;;;;;4954013;29;20027;-38
2023/08/29 03:53:24;;;;;;;1.90;1.13;;;19.40;99.90;;;;;;4954252;29;20031;-38
2023/08/29 03:55:50;;;;;;;1.80;0.80;;;19.40;99.90;;;;;;4954196;29;20623;-38
2023/08/29 03:58:15;;;;;;;1.25;0.70;;;19.40;99.90;;;;;;4954086;29;20024;-37
2023/08/29 04:00:44;;;;;;;1.17;0.90;;;19.40;99.90;;;;;;4953847;29;20082;-38
2023/08/29 04:03:10;;;;;;;1.65;0.90;;;19.40;99.90;;;;;;4953861;29;20035;-37
2023/08/29 04:05:39;;;;;;;1.40;0.98;;;19.40;99.90;;;;;;4954011;29;20106;-38
2023/08/29 04:08:06;;;;;;;2.40;1.10;;;19.40;99.90;;;;;;4953891;29;20031;-37
2023/08/29 04:10:39;;;;;;;1.08;0.93;;;19.40;99.90;;;;;;4953646;29;20396;-38
2023/08/29 04:13:06;;;;;;;1.38;0.82;;;19.40;99.90;;;;;;4953782;29;20397;-37
2023/08/29 04:15:35;;;;;;;2.28;1.15;;;19.40;99.90;;;;;;4953460;29;20405;-38
2023/08/29 04:18:01;;;;;;;1.30;0.90;;;19.40;99.90;;;;;;4954131;29;20086;-38
2023/08/29 04:20:28;;;;;;;2.13;1.05;;;19.40;99.90;;;;;;4953535;29;20023;-38
2023/08/29 04:22:54;;;;;;;1.60;1.20;;;19.40;99.90;;;;;;4953649;29;20030;-38
2023/08/29 04:25:20;;;;;;;1.00;0.90;;;19.40;99.90;;;;;;4953653;29;20477;-38
2023/08/29 04:27:47;;;;;;;2.00;1.02;;;19.40;99.90;;;;;;4953775;29;20046;-38
2023/08/29 04:30:14;;;;;;;1.33;0.90;;;19.40;99.90;;;;;;4953236;29;20082;-38
2023/08/29 04:32:39;;;;;;;1.23;1.10;;;19.40;99.90;;;;;;4952854;28;20035;-38
2023/08/29 04:35:06;;;;;;;2.58;1.23;;;19.40;99.90;;;;;;4953582;29;20385;-38
2023/08/29 04:37:34;;;;;;;2.63;1.23;;;19.40;99.90;;;;;;4953472;29;20035;-37
2023/08/29 04:40:01;;;;;;;1.27;0.90;;;19.40;99.90;;;;;;4953185;29;20028;-38
2023/08/29 04:42:27;;;;;;;2.17;1.00;;;19.40;99.90;;;;;;4953553;29;20274;-37
2023/08/29 04:44:53;;;;;;;1.48;1.10;;;19.40;99.90;;;;;;4953263;29;20074;-38
2023/08/29 04:47:22;;;;;;;1.75;1.00;;;19.40;99.90;;;;;;4953333;29;20027;-38
2023/08/29 04:49:47;;;;;;;1.17;0.88;;;19.30;99.90;;;;;;4953226;29;20493;-37
2023/08/29 04:52:13;;;;;;;1.50;0.90;;;19.30;99.90;;;;;;4953400;29;20038;-38
2023/08/29 04:54:39;;;;;;;1.90;1.10;;;19.40;99.90;;;;;;4953316;29;20038;-38
2023/08/29 04:57:05;;;;;;;1.65;1.00;;;19.40;99.90;;;;;;4954004;29;20034;-38
2023/08/29 04:59:31;;;;;;;1.38;1.00;;;19.30;99.90;;;;;;4953028;29;20023;-38
2023/08/29 05:01:56;;;;;;;2.10;1.30;;;19.30;99.90;;;;;;4953684;29;20031;-38
2023/08/29 05:04:25;;;;;;;1.77;0.98;;;19.30;99.90;;;;;;4953558;29;20098;-37
2023/08/29 05:06:51;;;;;;;1.58;1.20;;;19.30;99.90;;;;;;4953282;29;20034;-38
2023/08/29 05:09:16;;;;;;;1.58;1.00;;;19.30;99.90;;;;;;4953310;29;20019;-38
2023/08/29 05:11:42;;;;;;;1.15;0.98;;;19.30;99.90;;;;;;4953275;29;20031;-37
2023/08/29 05:14:07;;;;;;;1.10;0.90;;;19.30;99.90;;;;;;4953071;29;20031;-38
2023/08/29 05:16:33;;;;;;;3.22;1.10;;;19.30;99.90;;;;;;4953081;29;20501;-38
2023/08/29 05:18:59;;;;;;;1.88;1.17;;;19.30;99.90;;;;;;4952947;29;20030;-38
2023/08/29 05:21:25;;;;;;;2.03;1.10;;;19.30;99.90;;;;;;4953164;29;20527;-38
2023/08/29 05:23:50;;;;;;;1.35;1.10;;;19.30;99.90;;;;;;4953083;29;20104;-38
2023/08/29 05:26:16;;;;;;;1.15;1.00;;;19.30;99.90;;;;;;4953207;28;20043;-38
2023/08/29 05:28:42;;;;;;;2.05;1.20;;;19.30;99.90;;;;;;4953022;29;20031;-38
2023/08/29 05:31:08;;;;;;;1.33;0.85;;;19.30;99.90;;;;;;4952795;29;20063;-38
2023/08/29 05:33:33;;;;;;;2.15;1.25;;;19.30;99.90;;;;;;4952871;29;20066;-38
2023/08/29 05:35:59;;;;;;;1.33;1.00;;;19.30;99.90;;;;;;4952851;29;20023;-38
2023/08/29 05:38:25;;;;;;;1.30;1.05;;;19.30;99.90;;;;;;4952613;29;20139;-38
2023/08/29 05:40:54;;;;;;;1.17;0.90;;;19.30;99.90;;;;;;4952694;29;20524;-38
2023/08/29 05:43:20;;;;;;;1.58;1.00;;;19.30;99.90;;;;;;4954327;28;20020;-37
2023/08/29 05:45:45;;;;;;;1.85;1.30;;;19.30;99.90;;;;;;4956350;29;20030;-38
2023/08/29 05:48:11;;;;;;;3.22;1.02;;;19.30;99.90;;;;;;4956397;29;20525;-38
2023/08/29 05:50:41;;;;;;;2.08;1.13;;;19.30;99.90;;;;;;4956209;29;20031;-38
2023/08/29 05:53:06;;;;;;;1.90;1.10;;;19.30;99.90;;;;;;4956431;29;20033;-38
2023/08/29 05:55:33;;;;;;;1.67;1.13;;;19.30;99.90;;;;;;4956588;29;20031;-37
2023/08/29 05:57:59;;;;;;;1.48;1.10;;;19.30;99.90;;;;;;4956376;29;20055;-38
2023/08/29 06:00:25;;;;;;;1.48;1.00;;;19.30;99.90;;;;;;4956001;29;20019;-38
2023/08/29 06:02:52;;;;;;;1.10;1.00;;;19.30;99.90;;;;;;4956056;29;20020;-38
2023/08/29 06:05:18;;;;;;;2.08;1.00;;;19.30;99.90;;;;;;4956141;29;20519;-38
2023/08/29 06:07:44;;;;;;;1.33;1.00;;;19.30;99.90;;;;;;4956093;28;20031;-38
2023/08/29 06:10:10;;;;;;;1.00;0.82;;;19.30;99.90;;;;;;4955759;29;20114;-38
2023/08/29 06:12:35;;;;;;;1.77;1.08;;;19.30;99.90;;;;;;4956087;29;20062;-38
2023/08/29 06:15:01;;;;;;;1.52;1.08;;;19.30;99.90;;;;;;4955923;29;20086;-38
2023/08/29 06:17:26;;;;;;;1.40;0.98;;;19.30;99.90;;;;;;4955981;29;20023;-38
2023/08/29 06:19:52;;;;;;;0.93;0.85;;;19.30;99.90;;;;;;4955953;29;20028;-38
2023/08/29 06:22:18;;;;;;;1.23;0.98;;;19.30;99.90;;;;;;4955769;29;20027;-38
2023/08/29 06:24:43;;;;;;;2.33;1.00;;;19.30;99.90;;;;;;4955595;28;20501;-38
2023/08/29 06:27:09;;;;;;;2.05;1.00;;;19.30;99.90;;;;;;4955849;29;20027;-38
2023/08/29 06:29:35;;;;;;;1.60;1.02;;;19.30;99.90;;;;;;4955598;29;20034;-38
2023/08/29 06:32:00;;;;;;;1.10;0.90;;;19.30;99.90;;;;;;4955700;29;20050;-38
2023/08/29 06:34:26;;;;;;;1.58;0.98;;;19.30;99.90;;;;;;4955530;29;20438;-38
2023/08/29 06:36:52;;;;;;;1.50;0.98;;;19.30;99.90;;;;;;4938198;29;20128;-38
2023/08/29 06:39:17;;;;;;;1.35;0.90;;;19.30;99.90;;;;;;4955084;29;20099;-38
2023/08/29 06:41:43;;;;;;;1.15;0.90;;;19.30;99.90;;;;;;4938238;29;20032;-38
2023/08/29 06:44:09;;;;;;;1.88;1.27;;;19.30;99.90;;;;;;4955385;29;20047;-38
2023/08/29 06:46:35;;;;;;;2.17;1.10;;;19.30;99.90;;;;;;4955302;29;20510;-38
2023/08/29 06:49:00;;;;;;;1.58;0.90;;;19.30;99.90;;;;;;4955111;29;20031;-38
2023/08/29 06:51:26;;;;;;;0.95;0.85;;;19.30;99.90;;;;;;4955189;29;20050;-37
2023/08/29 06:53:51;;;;;;;1.55;0.88;;;19.30;99.90;;;;;;4954921;28;20031;-38
2023/08/29 06:56:18;;;;;;;1.52;0.90;;;19.30;99.90;;;;;;4954471;29;20388;-38
2023/08/29 06:58:44;;;;;;;1.67;0.85;;;19.30;99.90;;;;;;4954963;29;20540;-37
2023/08/29 07:01:09;;;;;;;2.00;1.02;;;19.30;99.90;;;;;;4955016;29;20111;-38
2023/08/29 07:03:35;;;;;;;2.90;1.00;;;19.30;99.90;;;;;;4955440;29;20027;-38
2023/08/29 07:06:01;;;;;;;1.20;0.88;;;19.30;99.90;;;;;;4954979;29;20046;-38
2023/08/29 07:08:26;;;;;;;6.88;3.00;;;19.30;99.90;;;;;;4955418;29;20552;-38
2023/08/29 07:10:52;;;;;;;3.75;2.40;;;19.20;99.90;;;;;;4955524;29;20110;-39
2023/08/29 07:13:17;;;;;;;4.10;2.40;;;18.90;99.90;;;;;;4954987;29;20457;-38
2023/08/29 07:15:43;;;;;;;4.07;2.40;;;18.80;99.90;;;;;;4955229;29;20031;-38
2023/08/29 07:18:09;;;;;;;3.22;2.10;;;18.80;99.90;;;;;;4955413;29;20094;-38
2023/08/29 07:20:34;;;;;;;3.00;1.98;;;18.80;99.90;;;;;;4955287;29;20098;-38
2023/08/29 07:23:00;;;;;;;4.95;1.88;;;18.80;99.90;;;;;;4955667;28;20015;-38
2023/08/29 07:25:41;;;;;;;3.85;1.73;;;18.90;99.90;;;;;;4938382;29;20054;-38
2023/08/29 07:28:09;;;;;;;6.35;1.73;;;18.90;99.90;;;;;;4955441;29;20031;-38
2023/08/29 07:30:34;;;;;;;3.13;1.70;;;18.90;99.90;;;;;;4955410;29;20028;-38
2023/08/29 07:33:00;;;;;;;3.85;1.60;;;19.00;99.90;;;;;;4954971;29;20030;-38
2023/08/29 07:35:25;;;;;;;4.32;1.67;;;19.00;99.90;;;;;;4955194;29;20117;-38
2023/08/29 07:37:52;;;;;;;2.13;1.40;;;19.00;99.90;;;;;;4954673;29;20035;-38
2023/08/29 07:40:18;;;;;;;3.28;1.52;;;19.00;99.90;;;;;;4954744;29;20031;-38
2023/08/29 07:42:44;;;;;;;2.92;1.40;;;19.00;99.90;;;;;;4954904;29;20031;-38
2023/08/29 07:45:10;;;;;;;2.85;1.70;;;19.10;99.90;;;;;;4954898;29;20158;-38
2023/08/29 07:47:35;;;;;;;5.82;2.92;;;19.10;99.90;;;;;;4954646;29;20106;-38
2023/08/29 07:50:02;;;;;;;7.13;3.38;;;18.50;99.90;;;;;;4954253;29;20064;-37
2023/08/29 07:52:31;;;;;;;5.07;2.83;;;18.30;99.90;;;;;;4954322;29;20027;-38
2023/08/29 07:54:58;;;;;;;4.13;2.70;;;18.30;99.90;;;;;;4954055;29;20385;-38
2023/08/29 07:57:24;;;;;;;5.72;2.88;;;18.30;99.90;;;;;;4954295;29;20031;-38
2023/08/29 07:59:49;;;;;;;4.10;2.55;;;18.30;99.90;;;;;;4953956;29;20031;-38
2023/08/29 08:02:15;;;;;;;4.88;2.05;;;18.30;99.90;;;;;;4954223;29;20027;-38
2023/08/29 08:04:40;;;;;;;4.28;2.20;;;18.30;99.90;;;;;;4953916;29;20134;-38
2023/08/29 08:07:06;;;;;;;4.53;2.15;;;18.40;99.90;;;;;;4954018;28;20035;-38
2023/08/29 08:09:32;;;;;;;2.03;1.52;;;18.40;99.90;;;;;;4953793;29;20055;-38
2023/08/29 08:11:57;;;;;;;3.83;1.90;;;18.40;99.90;;;;;;4954033;29;20102;-38
2023/08/29 08:14:23;;;;;;;3.42;1.80;;;18.50;99.90;;;;;;4953922;29;20033;-39
2023/08/29 08:16:49;;;;;;;3.63;2.17;;;18.50;99.90;;;;;;4953825;29;20035;-38
2023/08/29 08:19:14;;;;;;;3.05;1.70;;;18.50;99.90;;;;;;4953618;29;20047;-38
2023/08/29 08:21:40;;;;;;;2.40;2.13;;;18.50;99.90;;;;;;4953653;29;20477;-38
2023/08/29 08:24:08;;;;;;;2.83;1.65;;;18.60;99.90;;;;;;4953788;29;20085;-38
2023/08/29 08:26:33;;;;;;;4.68;1.73;;;18.60;99.90;;;;;;4953726;29;20031;-38
2023/08/29 08:29:00;;;;;;;2.38;1.60;;;18.70;99.90;;;;;;4953409;29;20030;-38
2023/08/29 08:31:25;;;;;;;4.63;3.03;;;18.70;99.90;;;;;;4953536;29;20050;-37
2023/08/29 08:33:51;;;;;;;6.60;3.97;;;18.70;99.90;;;;;;4953427;29;20389;-39
2023/08/29 08:36:17;;;;;;;6.38;3.85;;;18.20;99.90;;;;;;4953592;29;20038;-38
2023/08/29 08:38:42;;;;;;;4.82;4.10;;;18.00;99.90;;;;;;4953204;29;20028;-38
2023/08/29 08:41:11;;;;;;;5.53;3.92;;;17.80;99.90;;;;;;4936151;29;20031;-39
2023/08/29 08:43:38;;;;;;;6.40;4.10;;;17.70;99.90;;;;;;4953569;29;20081;-39
2023/08/29 08:46:05;;;;;;;6.50;4.10;;;17.60;99.90;;;;;;4953368;29;20033;-38
2023/08/29 08:48:31;;;;;;;7.22;4.35;;;17.50;99.90;;;;;;4953067;29;20023;-38
2023/08/29 08:50:58;;;;;;;8.05;4.13;;;17.40;99.90;;;;;;4953302;29;20425;-38
2023/08/29 08:53:25;;;;;;;7.88;4.07;;;17.30;99.90;;;;;;4953210;29;20397;-38
2023/08/29 08:55:51;;;;;;;6.80;3.80;;;17.20;99.90;;;;;;4953325;29;20113;-37
2023/08/29 08:58:18;;;;;;;7.55;3.83;;;17.20;99.90;;;;;;4953672;29;20486;-37
2023/08/29 09:00:44;;;;;;;5.30;3.60;;;17.10;99.90;;;;;;4953185;29;20512;-37
2023/08/29 09:03:11;;;;;;;4.85;3.47;;;17.20;99.90;;;;;;4953121;29;20027;-37
2023/08/29 09:05:37;;;;;;;4.53;3.40;;;17.20;99.90;;;;;;4953309;29;20497;-37
2023/08/29 09:08:03;;;;;;;4.53;2.97;;;17.30;99.90;;;;;;4953438;29;20122;-37
2023/08/29 09:10:33;;;;;;;5.32;3.13;;;17.50;99.90;;;;;;4953296;29;20027;-37
2023/08/29 09:12:58;;;;;;;4.72;2.80;;;17.60;99.90;;;;;;4953256;29;20489;-37
2023/08/29 09:15:26;;;;;;;5.30;3.00;;;17.70;99.90;;;;;;4953490;29;20038;-37
2023/08/29 09:17:53;;;;;;;3.53;2.65;;;17.80;99.90;;;;;;4936496;29;20436;-37
2023/08/29 09:20:20;;;;;;;2.85;2.13;;;17.90;99.90;;;;;;4956829;29;20030;-37
2023/08/29 09:22:47;;;;;;;2.63;2.30;;;17.90;99.90;;;;;;4957056;29;20027;-37
2023/08/29 09:25:12;;;;;;;4.47;2.13;;;18.00;99.90;;;;;;4956972;29;20030;-37
2023/08/29 09:27:43;;;;;;;3.60;2.15;;;18.10;99.90;;;;;;4956864;29;20035;-37
2023/08/29 09:30:13;;;;;;;2.50;1.98;;;18.10;99.90;;;;;;4956584;29;20086;-37
2023/08/29 09:32:47;;;;;;;2.90;1.95;;;18.20;99.90;;;;;;4956675;29;20078;-37
2023/08/29 09:35:14;;;;;;;4.40;2.25;;;18.20;99.90;;;;;;4957127;29;20029;-37
2023/08/29 09:37:45;;;;;;;2.80;1.90;;;18.20;99.90;;;;;;4956651;29;20035;-37
2023/08/29 09:40:15;;;;;;;2.08;1.73;;;18.20;99.90;;;;;;5013862;23;20049;-38
2023/08/29 09:42:40;;;;;;;2.90;1.90;;;18.30;99.90;;;;;;4994998;28;20038;-35
2023/08/29 09:45:07;;;;;;;2.92;2.22;;;18.40;99.90;;;;;;4995198;28;20026;-41
2023/08/29 09:47:34;;;;;;;2.40;1.70;;;18.40;99.90;;;;;;4995123;28;20033;-39
2023/08/29 09:50:00;;;;;;;2.90;1.88;;;18.40;99.90;;;;;;4994769;28;20399;-39
2023/08/29 09:52:26;;;;;;;2.15;1.65;;;18.40;99.90;;;;;;4995081;28;20026;-40
2023/08/29 09:54:53;;;;;;;3.53;1.70;;;18.40;99.90;;;;;;4994899;28;20030;-36
2023/08/29 09:57:22;;;;;;;2.60;1.85;;;18.50;99.90;;;;;;4994933;28;20113;-35
2023/08/29 09:59:51;;;;;;;2.08;1.70;;;18.40;99.90;;;;;;4994818;28;20058;-37
2023/08/29 10:02:20;;;;;;;1.70;1.60;;;18.50;99.90;;;;;;4994861;28;20105;-35
2023/08/29 10:04:52;;;;;;;3.15;1.58;;;18.50;99.90;;;;;;4994824;28;20479;-40
2023/08/29 10:07:25;;;;;;;2.78;1.80;;;18.50;99.90;;;;;;4994838;28;20033;-39
2023/08/29 10:09:51;;;;;;;1.70;1.60;;;18.60;99.90;;;;;;4994512;28;20026;-39
2023/08/29 10:12:18;;;;;;;1.80;1.50;;;18.50;99.90;;;;;;4994912;28;20030;-38
2023/08/29 10:14:44;;;;;;;2.20;1.67;;;18.60;99.90;;;;;;4994624;28;20034;-37
2023/08/29 10:17:12;;;;;;;1.63;1.50;;;18.60;99.90;;;;;;4994642;28;20030;-37
2023/08/29 10:19:39;;;;;;;1.88;1.63;;;18.60;99.90;;;;;;4994262;28;20033;-39
2023/08/29 10:22:07;;;;;;;1.90;1.40;;;18.60;99.90;;;;;;4992988;28;20034;-37
2023/08/29 10:24:36;;;;;;;1.60;1.27;;;18.60;99.90;;;;;;4994431;28;20463;-37
2023/08/29 10:27:03;;;;;;;2.05;1.35;;;18.70;99.90;;;;;;4994511;28;20480;-39
2023/08/29 10:29:32;;;;;;;1.75;1.55;;;18.70;99.90;;;;;;4992981;28;20081;-38
2023/08/29 10:32:00;;;;;;;1.92;1.60;;;18.70;99.90;;;;;;4994447;28;20461;-40
2023/08/29 10:34:29;;;;;;;1.88;1.60;;;18.70;99.90;;;;;;4994254;28;20027;-40
2023/08/29 10:36:56;;;;;;;1.40;1.30;;;18.70;99.90;;;;;;4994198;28;20022;-40
2023/08/29 10:39:25;;;;;;;2.08;1.60;;;18.70;99.90;;;;;;4993821;28;20041;-38
2023/08/29 10:41:54;;;;;;;1.65;1.40;;;18.70;99.90;;;;;;4994175;28;20379;-38
2023/08/29 10:44:36;;;;;;;1.63;1.50;;;18.80;99.90;;;;;;4994080;28;20073;-38
2023/08/29 10:47:30;;;;;;;2.67;1.63;;;18.80;99.90;;;;;;4993974;28;20018;-37
2023/08/29 10:50:05;;;;;;;2.50;1.35;;;18.80;99.90;;;;;;4994661;28;20022;-35
2023/08/29 10:52:41;;;;;;;2.03;1.50;;;18.80;99.90;;;;;;4993979;28;20054;-35
2023/08/29 10:55:23;;;;;;;2.03;1.42;;;18.80;99.90;;;;;;4993897;28;20093;-38
2023/08/29 10:57:51;;;;;;;2.63;1.60;;;18.80;99.90;;;;;;4993902;28;20489;-36
2023/08/29 11:00:32;;;;;;;2.10;1.50;;;18.80;99.90;;;;;;4993427;28;20026;-39
2023/08/29 11:02:58;;;;;;;1.50;1.40;;;18.80;99.90;;;;;;4993770;28;20105;-37
2023/08/29 11:05:24;;;;;;;1.40;1.30;;;18.80;99.90;;;;;;4993724;28;20102;-37
2023/08/29 11:07:50;;;;;;;1.88;1.50;;;18.80;99.90;;;;;;4993488;28;20400;-37
2023/08/29 11:10:22;;;;;;;1.80;1.52;;;18.80;99.90;;;;;;4993405;28;20022;-37
2023/08/29 11:13:09;;;;;;;1.95;1.33;;;18.80;99.90;;;;;;4993657;28;20030;-36
2023/08/29 11:16:05;;;;;;;1.63;1.38;;;18.80;99.90;;;;;;4993464;28;20105;-37
2023/08/29 11:18:34;;;;;;;1.40;1.30;;;18.80;99.90;;;;;;4988972;28;20031;-37
2023/08/29 11:21:07;;;;;;;1.90;1.38;;;18.80;99.90;;;;;;4993214;28;20030;-40
2023/08/29 11:23:37;;;;;;;1.92;1.50;;;18.80;99.90;;;;;;4993431;28;20104;-38
2023/08/29 11:26:03;;;;;;;5.50;4.15;;;18.90;99.90;;;;;;4993336;28;20054;-35
2023/08/29 11:28:32;;;;;;;71.05;6.57;;;18.90;99.90;;;;;;4993200;28;20619;-38
2023/08/29 11:30:58;;;;;;;6.65;4.78;;;18.80;99.90;;;;;;4992943;28;20105;-36
2023/08/29 11:33:31;;;;;;;10.98;4.50;;;18.70;99.90;;;;;;4993198;28;20037;-39
2023/08/29 11:35:56;;;;;;;6.65;4.80;;;18.60;99.90;;;;;;4993154;28;20080;-34
2023/08/29 11:38:29;;;;;;;5.95;4.22;;;18.60;99.90;;;;;;4992882;28;20030;-37
2023/08/29 11:40:56;;;;;;;8.65;4.43;;;;;;;;;;4992648;28;20027;-34
2023/08/29 11:43:23;;;;;;;6.97;3.83;;;;;;;;;;4992838;28;20545;-37
2023/08/29 11:45:52;;;;;;;5.68;3.70;;;18.70;99.90;;;;;;4993033;28;20053;-42
2023/08/29 11:48:36;;;;;;;4.07;3.28;;;18.80;99.90;;;;;;4992904;28;20133;-36
2023/08/29 11:51:06;;;;;;;5.68;3.63;;;18.60;99.90;;;;;;4992766;28;20038;-39
2023/08/29 11:53:36;;;;;;;3.95;3.10;;;18.80;99.90;;;;;;4991699;28;20034;-38
2023/08/29 11:56:05;;;;;;;3.58;3.10;;;;;;;;;;4992683;28;20035;-39
2023/08/29 11:58:35;;;;;;;3.80;3.10;;;18.80;99.90;;;;;;4992599;28;20032;-39
2023/08/29 12:01:02;;;;;;;4.40;2.60;;;18.90;99.90;;;;;;4992533;28;20054;-37
2023/08/29 12:03:28;;;;;;;4.05;2.97;;;18.80;99.90;;;;;;4992670;28;20034;-34
2023/08/29 12:05:57;;;;;;;4.20;2.42;;;18.90;99.90;;;;;;4992558;28;20023;-35
2023/08/29 12:08:46;;;;;;;3.55;2.38;;;18.90;99.90;;;;;;4992331;28;20031;-37
2023/08/29 12:11:15;;;;;;;3.65;2.47;;;18.90;99.90;;;;;;4992393;28;20496;-37
2023/08/29 12:13:57;;;;;;;3.40;2.42;;;18.90;99.90;;;;;;4992497;28;20027;-41
2023/08/29 12:16:22;;;;;;;3.15;2.30;;;19.00;99.90;;;;;;4992452;28;20113;-35
2023/08/29 12:18:48;;;;;;;2.80;2.30;;;18.90;99.90;;;;;;4992019;28;20098;-36
2023/08/29 12:21:17;;;;;;;4.00;2.30;;;19.00;99.90;;;;;;4992276;28;20027;-36
2023/08/29 12:23:43;;;;;;;3.10;2.20;;;19.00;99.90;;;;;;4992254;28;20027;-37
2023/08/29 12:26:10;;;;;;;2.85;1.85;;;19.00;99.90;;;;;;4992326;28;20173;-40
2023/08/29 12:28:36;;;;;;;2.95;2.00;;;18.90;99.90;;;;;;4992111;28;20054;-38
2023/08/29 12:31:01;;;;;;;2.85;2.10;;;19.00;99.90;;;;;;4992021;28;20065;-38
2023/08/29 12:33:27;;;;;;;3.35;2.00;;;19.00;99.90;;;;;;4992074;28;20500;-36
2023/08/29 12:35:54;;;;;;;2.45;2.10;;;19.00;99.90;;;;;;4992095;28;20026;-35
2023/08/29 12:38:21;;;;;;;2.58;2.03;;;19.00;99.90;;;;;;4991972;28;20026;-39
2023/08/29 12:40:47;;;;;;;3.05;2.03;;;19.00;99.90;;;;;;4992003;28;20061;-34
2023/08/29 12:43:15;;;;;;;2.17;1.85;;;19.00;99.90;;;;;;4991968;28;20050;-37
2023/08/29 12:45:41;;;;;;;2.33;2.10;;;19.00;99.90;;;;;;4992002;28;20026;-38
2023/08/29 12:48:08;;;;;;;2.60;1.80;;;19.00;99.90;;;;;;4991921;28;20054;-39